createdAt,value
2017-09-03T00:02:17.000Z,20.7
2017-09-03T00:12:17.000Z,20.7
2017-09-03T00:22:17.000Z,20.7
2017-09-03T00:32:17.000Z,20.8
2017-09-03T00:42:17.000Z,20.7
2017-09-03T00:52:17.000Z,20.7
2017-09-03T01:02:17.000Z,20.7
2017-09-03T01:12:17.000Z,20.7
2017-09-03T01:22:17.000Z,20.6
2017-09-03T01:32:17.000Z,20.6
2017-09-03T01:42:17.000Z,20.5
2017-09-03T01:52:17.000Z,20.5
2017-09-03T02:02:17.000Z,20.4
2017-09-03T02:12:17.000Z,20.4
2017-09-03T02:22:17.000Z,20.2
2017-09-03T02:32:17.000Z,20.2
2017-09-03T02:42:17.000Z,20.1
2017-09-03T02:52:17.000Z,20
2017-09-03T03:02:17.000Z,19.9
2017-09-03T03:12:17.000Z,19.9
2017-09-03T03:22:17.000Z,19.9
2017-09-03T03:32:17.000Z,19.9
2017-09-03T03:42:17.000Z,19.8
2017-09-03T03:52:17.000Z,19.7
2017-09-03T04:02:17.000Z,19.7
2017-09-03T04:12:17.000Z,19.6
2017-09-03T04:22:18.000Z,19.6
2017-09-03T04:32:18.000Z,19.6
2017-09-03T04:42:18.000Z,19.6
2017-09-03T04:52:18.000Z,19.7
2017-09-03T05:02:18.000Z,19.7
2017-09-03T05:12:18.000Z,19.7
2017-09-03T05:22:18.000Z,19.7
2017-09-03T05:32:18.000Z,19.7
2017-09-03T05:42:18.000Z,19.6
2017-09-03T05:52:18.000Z,19.6
2017-09-03T06:02:18.000Z,19.6
2017-09-03T06:12:18.000Z,19.6
2017-09-03T06:22:18.000Z,19.7
2017-09-03T06:32:18.000Z,19.7
2017-09-03T06:42:18.000Z,19.8
2017-09-03T06:52:18.000Z,19.8
2017-09-03T07:02:18.000Z,19.9
2017-09-03T07:12:18.000Z,20
2017-09-03T07:22:18.000Z,20.2
2017-09-03T07:32:18.000Z,20.3
2017-09-03T07:42:18.000Z,20.4
2017-09-03T07:52:18.000Z,20.8
2017-09-03T08:02:18.000Z,21.2
2017-09-03T08:12:18.000Z,21.3
2017-09-03T08:22:18.000Z,21.3
2017-09-03T08:32:18.000Z,21.4
2017-09-03T08:42:18.000Z,21.5
2017-09-03T08:52:18.000Z,21.4
2017-09-03T09:02:18.000Z,21.6
2017-09-03T09:12:18.000Z,21.7
2017-09-03T09:22:18.000Z,21.6
2017-09-03T09:32:18.000Z,21.7
2017-09-03T09:42:18.000Z,21.7
2017-09-03T09:52:18.000Z,21.6
2017-09-03T10:02:18.000Z,21.8
2017-09-03T10:12:18.000Z,21.7
2017-09-03T10:22:18.000Z,21.6
2017-09-03T10:32:18.000Z,21.7
2017-09-03T10:42:18.000Z,21.8
2017-09-03T10:52:19.000Z,21.6
2017-09-03T11:02:19.000Z,21.4
2017-09-03T11:12:19.000Z,21.3
2017-09-03T11:22:19.000Z,21.2
2017-09-03T11:32:19.000Z,21.1
2017-09-03T11:42:19.000Z,21.2
2017-09-03T11:52:19.000Z,21.2
2017-09-03T12:02:19.000Z,21.2
2017-09-03T12:12:19.000Z,21.2
2017-09-03T12:22:19.000Z,21.2
2017-09-03T12:32:19.000Z,21.2
2017-09-03T12:42:19.000Z,21.3
2017-09-03T12:52:19.000Z,21.6
2017-09-03T13:02:19.000Z,22
2017-09-03T13:12:19.000Z,22
2017-09-03T13:22:19.000Z,22
2017-09-03T13:32:19.000Z,21.9
2017-09-03T13:42:19.000Z,21.6
2017-09-03T13:52:19.000Z,21.5
2017-09-03T14:02:19.000Z,21.4
2017-09-03T14:12:19.000Z,21.4
2017-09-03T14:22:19.000Z,21.4
2017-09-03T14:32:19.000Z,21.4
2017-09-03T14:42:19.000Z,21.4
2017-09-03T14:52:19.000Z,21.4
2017-09-03T15:02:19.000Z,21.4
2017-09-03T15:12:19.000Z,21.4
2017-09-03T15:22:19.000Z,21.4
2017-09-03T15:32:19.000Z,21.4
2017-09-03T15:42:19.000Z,21.4
2017-09-03T15:52:19.000Z,21.4
2017-09-03T16:02:19.000Z,21.8
2017-09-03T16:12:19.000Z,22.1
2017-09-03T16:22:19.000Z,22.2
2017-09-03T16:32:19.000Z,22.2
2017-09-03T16:42:19.000Z,22.1
2017-09-03T16:52:19.000Z,22.2
2017-09-03T17:02:19.000Z,22
2017-09-03T17:12:19.000Z,21.7
2017-09-03T17:22:19.000Z,21.6
2017-09-03T17:32:20.000Z,21.7
2017-09-03T17:42:20.000Z,21.7
2017-09-03T17:52:20.000Z,21.7
2017-09-03T18:02:20.000Z,21.8
2017-09-03T18:12:20.000Z,21.6
2017-09-03T18:32:20.000Z,21.6
2017-09-03T18:42:20.000Z,21.6
2017-09-03T18:52:20.000Z,21.6
2017-09-03T19:02:20.000Z,21.6
2017-09-03T19:12:20.000Z,21.5
2017-09-03T19:22:20.000Z,21.9
2017-09-03T19:32:20.000Z,22.1
2017-09-03T19:42:20.000Z,22.3
2017-09-03T19:52:20.000Z,22.2
2017-09-03T20:02:20.000Z,22.4
2017-09-03T20:12:20.000Z,22.4
2017-09-03T20:22:20.000Z,22.4
2017-09-03T20:32:20.000Z,22.4
2017-09-03T20:42:20.000Z,22.4
2017-09-03T20:52:20.000Z,22.5
2017-09-03T21:02:20.000Z,22.3
2017-09-03T21:12:20.000Z,22
2017-09-03T21:22:20.000Z,21.8
2017-09-03T21:32:20.000Z,21.7
2017-09-03T21:42:21.000Z,21.5
2017-09-03T21:52:22.000Z,21.6
2017-09-03T22:02:20.000Z,21.6
2017-09-03T22:12:20.000Z,21.5
2017-09-03T22:22:20.000Z,21.5
2017-09-03T22:32:20.000Z,21.4
2017-09-03T22:42:20.000Z,21.4
2017-09-03T22:52:20.000Z,21.5
2017-09-03T23:02:20.000Z,21.4
2017-09-03T23:12:20.000Z,21.3
2017-09-03T23:22:20.000Z,21.2
2017-09-03T23:32:20.000Z,21.1
2017-09-03T23:42:20.000Z,21.1
2017-09-03T23:52:20.000Z,21
